sensor_id;sensor_type;location;lat;lon;timestamp;temperature;humidity
25616;DHT22;13482;48.234;13.006;2024-03-17T00:01:11;12.20;73.80
25616;DHT22;13482;48.234;13.006;2024-03-17T00:03:37;12.20;73.80
25616;DHT22;13482;48.234;13.006;2024-03-17T00:06:04;12.20;73.90
25616;DHT22;13482;48.234;13.006;2024-03-17T00:08:30;12.20;73.90
25616;DHT22;13482;48.234;13.006;2024-03-17T00:10:56;12.20;73.90
25616;DHT22;13482;48.234;13.006;2024-03-17T00:13:23;12.20;73.90
25616;DHT22;13482;48.234;13.006;2024-03-17T00:15:50;12.20;73.90
25616;DHT22;13482;48.234;13.006;2024-03-17T00:18:17;12.20;73.90
25616;DHT22;13482;48.234;13.006;2024-03-17T00:20:44;12.20;73.90
25616;DHT22;13482;48.234;13.006;2024-03-17T00:23:10;12.20;73.90
25616;DHT22;13482;48.234;13.006;2024-03-17T00:28:57;12.20;74.10
25616;DHT22;13482;48.234;13.006;2024-03-17T00:31:31;12.20;74.10
25616;DHT22;13482;48.234;13.006;2024-03-17T00:33:58;12.20;73.70
25616;DHT22;13482;48.234;13.006;2024-03-17T00:36:24;12.10;73.70
25616;DHT22;13482;48.234;13.006;2024-03-17T00:38:50;12.10;73.70
25616;DHT22;13482;48.234;13.006;2024-03-17T00:41:18;12.10;73.70
25616;DHT22;13482;48.234;13.006;2024-03-17T00:43:45;12.10;73.70
25616;DHT22;13482;48.234;13.006;2024-03-17T00:46:11;12.10;73.60
25616;DHT22;13482;48.234;13.006;2024-03-17T00:48:38;12.10;73.60
25616;DHT22;13482;48.234;13.006;2024-03-17T00:51:04;12.10;73.50
25616;DHT22;13482;48.234;13.006;2024-03-17T00:53:31;12.10;73.50
25616;DHT22;13482;48.234;13.006;2024-03-17T00:55:57;12.00;73.50
25616;DHT22;13482;48.234;13.006;2024-03-17T00:58:24;12.00;73.50
25616;DHT22;13482;48.234;13.006;2024-03-17T01:00:51;12.00;73.40
25616;DHT22;13482;48.234;13.006;2024-03-17T01:03:17;12.00;73.40
25616;DHT22;13482;48.234;13.006;2024-03-17T01:05:45;12.00;73.40
25616;DHT22;13482;48.234;13.006;2024-03-17T01:08:14;12.00;73.40
25616;DHT22;13482;48.234;13.006;2024-03-17T01:10:41;12.00;73.40
25616;DHT22;13482;48.234;13.006;2024-03-17T01:13:08;12.00;73.40
25616;DHT22;13482;48.234;13.006;2024-03-17T01:15:36;12.00;73.40
25616;DHT22;13482;48.234;13.006;2024-03-17T01:18:05;12.00;73.30
25616;DHT22;13482;48.234;13.006;2024-03-17T01:20:36;12.00;73.30
25616;DHT22;13482;48.234;13.006;2024-03-17T01:23:04;11.90;73.30
25616;DHT22;13482;48.234;13.006;2024-03-17T01:25:31;11.90;73.40
25616;DHT22;13482;48.234;13.006;2024-03-17T01:28:02;11.90;73.30
25616;DHT22;13482;48.234;13.006;2024-03-17T01:30:33;11.90;73.30
25616;DHT22;13482;48.234;13.006;2024-03-17T01:33:00;11.90;73.30
25616;DHT22;13482;48.234;13.006;2024-03-17T01:35:27;11.80;73.30
25616;DHT22;13482;48.234;13.006;2024-03-17T01:37:53;11.80;73.30
25616;DHT22;13482;48.234;13.006;2024-03-17T01:40:20;11.80;73.30
25616;DHT22;13482;48.234;13.006;2024-03-17T01:42:47;11.80;73.30
25616;DHT22;13482;48.234;13.006;2024-03-17T01:45:32;11.70;73.30
25616;DHT22;13482;48.234;13.006;2024-03-17T01:48:01;11.80;73.80
25616;DHT22;13482;48.234;13.006;2024-03-17T01:50:33;11.70;73.30
25616;DHT22;13482;48.234;13.006;2024-03-17T01:53:03;11.70;73.30
25616;DHT22;13482;48.234;13.006;2024-03-17T01:55:33;11.70;73.30
25616;DHT22;13482;48.234;13.006;2024-03-17T01:58:04;11.70;73.30
25616;DHT22;13482;48.234;13.006;2024-03-17T02:00:35;11.70;73.30
25616;DHT22;13482;48.234;13.006;2024-03-17T02:03:06;11.60;73.30
25616;DHT22;13482;48.234;13.006;2024-03-17T02:05:40;11.60;73.30
25616;DHT22;13482;48.234;13.006;2024-03-17T02:08:07;11.60;73.20
25616;DHT22;13482;48.234;13.006;2024-03-17T02:10:34;11.60;73.20
25616;DHT22;13482;48.234;13.006;2024-03-17T02:13:01;11.60;73.10
25616;DHT22;13482;48.234;13.006;2024-03-17T02:15:30;11.60;73.10
25616;DHT22;13482;48.234;13.006;2024-03-17T02:17:56;11.60;73.10
25616;DHT22;13482;48.234;13.006;2024-03-17T02:20:23;11.50;73.20
25616;DHT22;13482;48.234;13.006;2024-03-17T02:23:08;11.50;73.20
25616;DHT22;13482;48.234;13.006;2024-03-17T02:25:34;11.50;73.30
25616;DHT22;13482;48.234;13.006;2024-03-17T02:28:01;11.50;73.30
25616;DHT22;13482;48.234;13.006;2024-03-17T02:30:28;11.50;73.40
25616;DHT22;13482;48.234;13.006;2024-03-17T02:32:55;11.50;73.40
25616;DHT22;13482;48.234;13.006;2024-03-17T02:35:23;11.50;73.40
25616;DHT22;13482;48.234;13.006;2024-03-17T02:37:52;11.50;73.40
25616;DHT22;13482;48.234;13.006;2024-03-17T02:40:18;11.50;73.50
25616;DHT22;13482;48.234;13.006;2024-03-17T02:42:45;11.50;73.50
25616;DHT22;13482;48.234;13.006;2024-03-17T02:45:12;11.50;73.50
25616;DHT22;13482;48.234;13.006;2024-03-17T02:47:38;11.50;73.50
25616;DHT22;13482;48.234;13.006;2024-03-17T02:50:07;11.50;73.50
25616;DHT22;13482;48.234;13.006;2024-03-17T02:52:35;11.50;73.50
25616;DHT22;13482;48.234;13.006;2024-03-17T02:55:01;11.50;73.40
25616;DHT22;13482;48.234;13.006;2024-03-17T02:57:27;11.50;73.40
25616;DHT22;13482;48.234;13.006;2024-03-17T02:59:59;11.50;73.40
25616;DHT22;13482;48.234;13.006;2024-03-17T03:02:25;11.50;73.40
25616;DHT22;13482;48.234;13.006;2024-03-17T03:04:51;11.40;73.40
25616;DHT22;13482;48.234;13.006;2024-03-17T03:07:18;11.40;73.40
25616;DHT22;13482;48.234;13.006;2024-03-17T03:09:45;11.50;73.20
25616;DHT22;13482;48.234;13.006;2024-03-17T03:12:11;11.40;73.10
25616;DHT22;13482;48.234;13.006;2024-03-17T03:14:37;11.40;73.00
25616;DHT22;13482;48.234;13.006;2024-03-17T03:17:04;11.40;72.90
25616;DHT22;13482;48.234;13.006;2024-03-17T03:19:30;11.40;72.80
25616;DHT22;13482;48.234;13.006;2024-03-17T03:21:56;11.30;72.80
25616;DHT22;13482;48.234;13.006;2024-03-17T03:24:23;11.30;72.80
25616;DHT22;13482;48.234;13.006;2024-03-17T03:26:49;11.30;72.80
25616;DHT22;13482;48.234;13.006;2024-03-17T03:29:15;11.20;72.90
25616;DHT22;13482;48.234;13.006;2024-03-17T03:31:42;11.20;72.90
25616;DHT22;13482;48.234;13.006;2024-03-17T03:34:08;11.10;72.80
25616;DHT22;13482;48.234;13.006;2024-03-17T03:36:35;11.10;72.90
25616;DHT22;13482;48.234;13.006;2024-03-17T03:39:03;11.10;72.90
25616;DHT22;13482;48.234;13.006;2024-03-17T03:41:35;11.00;73.00
25616;DHT22;13482;48.234;13.006;2024-03-17T03:44:03;11.00;73.00
25616;DHT22;13482;48.234;13.006;2024-03-17T03:46:29;10.90;73.00
25616;DHT22;13482;48.234;13.006;2024-03-17T03:48:56;10.90;73.00
25616;DHT22;13482;48.234;13.006;2024-03-17T03:51:23;10.90;73.00
25616;DHT22;13482;48.234;13.006;2024-03-17T03:53:51;10.90;73.10
25616;DHT22;13482;48.234;13.006;2024-03-17T03:56:18;10.80;73.10
25616;DHT22;13482;48.234;13.006;2024-03-17T03:58:46;10.80;73.10
25616;DHT22;13482;48.234;13.006;2024-03-17T04:01:13;10.80;73.20
25616;DHT22;13482;48.234;13.006;2024-03-17T04:03:47;10.80;73.20
25616;DHT22;13482;48.234;13.006;2024-03-17T04:06:15;10.80;73.20
25616;DHT22;13482;48.234;13.006;2024-03-17T04:08:42;10.80;73.20
25616;DHT22;13482;48.234;13.006;2024-03-17T04:11:09;10.80;73.20
25616;DHT22;13482;48.234;13.006;2024-03-17T04:13:37;10.80;73.20
25616;DHT22;13482;48.234;13.006;2024-03-17T04:16:07;10.80;73.20
25616;DHT22;13482;48.234;13.006;2024-03-17T04:18:34;10.80;73.20
25616;DHT22;13482;48.234;13.006;2024-03-17T04:21:05;10.80;73.20
25616;DHT22;13482;48.234;13.006;2024-03-17T04:23:34;10.80;73.20
25616;DHT22;13482;48.234;13.006;2024-03-17T04:26:02;10.80;73.20
25616;DHT22;13482;48.234;13.006;2024-03-17T04:28:30;10.80;73.10
25616;DHT22;13482;48.234;13.006;2024-03-17T04:31:06;10.80;73.00
25616;DHT22;13482;48.234;13.006;2024-03-17T04:33:33;10.80;73.20
25616;DHT22;13482;48.234;13.006;2024-03-17T04:36:00;10.80;73.00
25616;DHT22;13482;48.234;13.006;2024-03-17T04:38:28;10.70;73.00
25616;DHT22;13482;48.234;13.006;2024-03-17T04:40:55;10.70;73.00
25616;DHT22;13482;48.234;13.006;2024-03-17T04:43:33;10.70;73.00
25616;DHT22;13482;48.234;13.006;2024-03-17T04:46:04;10.70;73.00
25616;DHT22;13482;48.234;13.006;2024-03-17T04:48:33;10.70;73.00
25616;DHT22;13482;48.234;13.006;2024-03-17T04:51:00;10.70;72.90
25616;DHT22;13482;48.234;13.006;2024-03-17T04:53:27;10.70;72.70
25616;DHT22;13482;48.234;13.006;2024-03-17T04:56:05;10.70;72.70
25616;DHT22;13482;48.234;13.006;2024-03-17T04:58:32;10.70;72.70
25616;DHT22;13482;48.234;13.006;2024-03-17T05:01:08;10.70;72.60
25616;DHT22;13482;48.234;13.006;2024-03-17T05:03:37;10.70;72.60
25616;DHT22;13482;48.234;13.006;2024-03-17T05:06:09;10.70;72.60
25616;DHT22;13482;48.234;13.006;2024-03-17T05:08:36;10.70;72.60
25616;DHT22;13482;48.234;13.006;2024-03-17T05:11:04;10.60;72.60
25616;DHT22;13482;48.234;13.006;2024-03-17T05:13:33;10.60;72.70
25616;DHT22;13482;48.234;13.006;2024-03-17T05:16:02;10.60;72.60
25616;DHT22;13482;48.234;13.006;2024-03-17T05:18:32;10.60;72.60
25616;DHT22;13482;48.234;13.006;2024-03-17T05:21:03;10.60;72.70
25616;DHT22;13482;48.234;13.006;2024-03-17T05:23:32;10.60;72.80
25616;DHT22;13482;48.234;13.006;2024-03-17T05:26:00;10.60;72.70
25616;DHT22;13482;48.234;13.006;2024-03-17T05:28:28;10.50;72.90
25616;DHT22;13482;48.234;13.006;2024-03-17T05:30:55;10.50;72.90
25616;DHT22;13482;48.234;13.006;2024-03-17T05:33:25;10.50;73.00
25616;DHT22;13482;48.234;13.006;2024-03-17T05:35:53;10.50;73.00
25616;DHT22;13482;48.234;13.006;2024-03-17T05:38:25;10.50;73.10
25616;DHT22;13482;48.234;13.006;2024-03-17T05:41:01;10.40;73.10
25616;DHT22;13482;48.234;13.006;2024-03-17T05:43:31;10.40;73.30
25616;DHT22;13482;48.234;13.006;2024-03-17T05:46:13;10.40;73.20
25616;DHT22;13482;48.234;13.006;2024-03-17T05:48:40;10.30;73.50
25616;DHT22;13482;48.234;13.006;2024-03-17T05:51:08;10.30;73.40
25616;DHT22;13482;48.234;13.006;2024-03-17T05:53:38;10.30;73.60
25616;DHT22;13482;48.234;13.006;2024-03-17T05:56:06;10.30;73.60
25616;DHT22;13482;48.234;13.006;2024-03-17T05:58:35;10.30;73.70
25616;DHT22;13482;48.234;13.006;2024-03-17T06:01:02;10.30;73.70
25616;DHT22;13482;48.234;13.006;2024-03-17T06:03:29;10.30;73.80
25616;DHT22;13482;48.234;13.006;2024-03-17T06:05:58;10.30;73.80
25616;DHT22;13482;48.234;13.006;2024-03-17T06:08:26;10.40;74.00
25616;DHT22;13482;48.234;13.006;2024-03-17T06:10:52;10.40;73.90
25616;DHT22;13482;48.234;13.006;2024-03-17T06:13:18;10.40;73.90
25616;DHT22;13482;48.234;13.006;2024-03-17T06:15:45;10.40;73.90
25616;DHT22;13482;48.234;13.006;2024-03-17T06:18:15;10.50;74.00
25616;DHT22;13482;48.234;13.006;2024-03-17T06:20:48;10.50;74.10
25616;DHT22;13482;48.234;13.006;2024-03-17T06:23:15;10.50;74.10
25616;DHT22;13482;48.234;13.006;2024-03-17T06:25:46;10.60;74.10
25616;DHT22;13482;48.234;13.006;2024-03-17T06:28:15;10.60;74.10
25616;DHT22;13482;48.234;13.006;2024-03-17T06:30:54;10.70;74.10
25616;DHT22;13482;48.234;13.006;2024-03-17T06:33:22;10.70;74.30
25616;DHT22;13482;48.234;13.006;2024-03-17T06:35:49;10.80;74.30
25616;DHT22;13482;48.234;13.006;2024-03-17T06:38:15;10.80;74.20
25616;DHT22;13482;48.234;13.006;2024-03-17T06:40:51;10.90;74.20
25616;DHT22;13482;48.234;13.006;2024-03-17T06:43:19;10.90;74.20
25616;DHT22;13482;48.234;13.006;2024-03-17T06:45:59;11.00;74.20
25616;DHT22;13482;48.234;13.006;2024-03-17T06:48:28;11.10;74.50
25616;DHT22;13482;48.234;13.006;2024-03-17T06:50:55;11.10;74.40
25616;DHT22;13482;48.234;13.006;2024-03-17T06:53:22;11.20;74.60
25616;DHT22;13482;48.234;13.006;2024-03-17T06:58:21;11.30;74.90
25616;DHT22;13482;48.234;13.006;2024-03-17T07:00:53;11.40;74.90
25616;DHT22;13482;48.234;13.006;2024-03-17T07:03:22;11.40;75.00
25616;DHT22;13482;48.234;13.006;2024-03-17T07:05:56;11.60;75.20
25616;DHT22;13482;48.234;13.006;2024-03-17T07:08:24;11.60;74.60
25616;DHT22;13482;48.234;13.006;2024-03-17T07:13:25;11.80;74.90
25616;DHT22;13482;48.234;13.006;2024-03-17T07:15:52;11.80;74.90
25616;DHT22;13482;48.234;13.006;2024-03-17T07:18:18;11.90;74.90
25616;DHT22;13482;48.234;13.006;2024-03-17T07:20:45;12.00;74.90
25616;DHT22;13482;48.234;13.006;2024-03-17T07:23:16;12.10;74.90
25616;DHT22;13482;48.234;13.006;2024-03-17T07:25:58;12.20;74.80
25616;DHT22;13482;48.234;13.006;2024-03-17T07:28:25;12.30;74.70
25616;DHT22;13482;48.234;13.006;2024-03-17T07:30:56;12.30;74.60
25616;DHT22;13482;48.234;13.006;2024-03-17T07:33:24;12.40;74.40
25616;DHT22;13482;48.234;13.006;2024-03-17T07:35:55;12.50;74.10
25616;DHT22;13482;48.234;13.006;2024-03-17T07:38:24;12.50;74.00
25616;DHT22;13482;48.234;13.006;2024-03-17T07:41:07;12.60;73.90
25616;DHT22;13482;48.234;13.006;2024-03-17T07:43:35;12.60;73.80
25616;DHT22;13482;48.234;13.006;2024-03-17T07:46:07;12.70;73.70
25616;DHT22;13482;48.234;13.006;2024-03-17T07:48:41;12.70;73.70
25616;DHT22;13482;48.234;13.006;2024-03-17T07:51:13;12.80;73.80
25616;DHT22;13482;48.234;13.006;2024-03-17T07:53:45;12.90;74.20
25616;DHT22;13482;48.234;13.006;2024-03-17T07:56:14;13.00;74.40
25616;DHT22;13482;48.234;13.006;2024-03-17T07:58:43;13.10;74.60
25616;DHT22;13482;48.234;13.006;2024-03-17T08:01:11;13.20;74.50
25616;DHT22;13482;48.234;13.006;2024-03-17T08:03:45;13.40;74.50
25616;DHT22;13482;48.234;13.006;2024-03-17T08:06:12;13.50;74.20
25616;DHT22;13482;48.234;13.006;2024-03-17T08:08:39;13.60;74.30
25616;DHT22;13482;48.234;13.006;2024-03-17T08:11:06;13.70;74.30
25616;DHT22;13482;48.234;13.006;2024-03-17T08:13:33;13.90;74.10
25616;DHT22;13482;48.234;13.006;2024-03-17T08:16:07;14.00;73.70
25616;DHT22;13482;48.234;13.006;2024-03-17T08:18:37;14.20;73.60
25616;DHT22;13482;48.234;13.006;2024-03-17T08:21:04;14.30;73.80
25616;DHT22;13482;48.234;13.006;2024-03-17T08:23:33;14.40;73.90
25616;DHT22;13482;48.234;13.006;2024-03-17T08:26:03;14.60;74.00
25616;DHT22;13482;48.234;13.006;2024-03-17T08:28:30;14.70;73.90
25616;DHT22;13482;48.234;13.006;2024-03-17T08:31:03;14.90;73.80
25616;DHT22;13482;48.234;13.006;2024-03-17T08:33:31;15.00;73.70
25616;DHT22;13482;48.234;13.006;2024-03-17T08:36:04;15.20;73.80
25616;DHT22;13482;48.234;13.006;2024-03-17T08:38:33;15.40;73.30
25616;DHT22;13482;48.234;13.006;2024-03-17T08:41:07;15.50;73.30
25616;DHT22;13482;48.234;13.006;2024-03-17T08:43:36;15.70;73.30
25616;DHT22;13482;48.234;13.006;2024-03-17T08:46:05;15.80;73.30
25616;DHT22;13482;48.234;13.006;2024-03-17T08:48:34;16.00;73.10
25616;DHT22;13482;48.234;13.006;2024-03-17T08:51:03;16.10;72.90
25616;DHT22;13482;48.234;13.006;2024-03-17T08:53:31;16.30;72.90
25616;DHT22;13482;48.234;13.006;2024-03-17T08:55:59;16.40;72.70
25616;DHT22;13482;48.234;13.006;2024-03-17T08:58:26;16.60;72.50
25616;DHT22;13482;48.234;13.006;2024-03-17T09:00:53;16.70;72.10
25616;DHT22;13482;48.234;13.006;2024-03-17T09:03:19;16.80;71.80
25616;DHT22;13482;48.234;13.006;2024-03-17T09:05:47;17.00;71.70
25616;DHT22;13482;48.234;13.006;2024-03-17T09:08:19;17.10;71.60
25616;DHT22;13482;48.234;13.006;2024-03-17T09:10:52;17.20;71.10
25616;DHT22;13482;48.234;13.006;2024-03-17T09:13:20;17.30;71.20
25616;DHT22;13482;48.234;13.006;2024-03-17T09:18:18;17.60;71.00
25616;DHT22;13482;48.234;13.006;2024-03-17T09:20:45;17.70;70.80
25616;DHT22;13482;48.234;13.006;2024-03-17T09:23:12;17.80;70.00
25616;DHT22;13482;48.234;13.006;2024-03-17T09:25:40;17.80;69.70
25616;DHT22;13482;48.234;13.006;2024-03-17T09:28:06;17.90;69.60
25616;DHT22;13482;48.234;13.006;2024-03-17T09:30:32;18.00;69.60
25616;DHT22;13482;48.234;13.006;2024-03-17T09:32:59;18.00;69.40
25616;DHT22;13482;48.234;13.006;2024-03-17T09:35:26;18.10;69.60
25616;DHT22;13482;48.234;13.006;2024-03-17T09:37:52;18.20;69.60
25616;DHT22;13482;48.234;13.006;2024-03-17T09:40:18;18.30;69.50
25616;DHT22;13482;48.234;13.006;2024-03-17T09:42:44;18.40;69.30
25616;DHT22;13482;48.234;13.006;2024-03-17T09:45:12;18.50;69.00
25616;DHT22;13482;48.234;13.006;2024-03-17T09:47:39;18.50;68.90
25616;DHT22;13482;48.234;13.006;2024-03-17T09:50:13;18.60;68.50
25616;DHT22;13482;48.234;13.006;2024-03-17T09:52:45;18.70;67.80
25616;DHT22;13482;48.234;13.006;2024-03-17T09:55:16;18.70;68.20
25616;DHT22;13482;48.234;13.006;2024-03-17T09:57:43;18.80;67.80
25616;DHT22;13482;48.234;13.006;2024-03-17T10:00:13;18.90;68.20
25616;DHT22;13482;48.234;13.006;2024-03-17T10:02:47;19.00;68.00
25616;DHT22;13482;48.234;13.006;2024-03-17T10:05:22;19.10;68.10
25616;DHT22;13482;48.234;13.006;2024-03-17T10:07:50;19.20;67.60
25616;DHT22;13482;48.234;13.006;2024-03-17T10:10:20;19.30;68.00
25616;DHT22;13482;48.234;13.006;2024-03-17T10:12:51;19.50;67.50
25616;DHT22;13482;48.234;13.006;2024-03-17T10:15:19;19.60;66.80
25616;DHT22;13482;48.234;13.006;2024-03-17T10:17:49;19.60;66.80
25616;DHT22;13482;48.234;13.006;2024-03-17T10:20:20;19.70;66.90
25616;DHT22;13482;48.234;13.006;2024-03-17T10:23:06;19.80;66.30
25616;DHT22;13482;48.234;13.006;2024-03-17T10:25:38;19.90;65.90
25616;DHT22;13482;48.234;13.006;2024-03-17T10:28:12;20.00;66.60
25616;DHT22;13482;48.234;13.006;2024-03-17T10:30:40;20.10;65.70
25616;DHT22;13482;48.234;13.006;2024-03-17T10:33:07;20.20;66.10
25616;DHT22;13482;48.234;13.006;2024-03-17T10:35:48;20.30;65.80
25616;DHT22;13482;48.234;13.006;2024-03-17T10:38:15;20.40;65.80
25616;DHT22;13482;48.234;13.006;2024-03-17T10:40:41;20.40;65.20
25616;DHT22;13482;48.234;13.006;2024-03-17T10:43:10;20.50;65.20
25616;DHT22;13482;48.234;13.006;2024-03-17T10:45:37;20.60;64.90
25616;DHT22;13482;48.234;13.006;2024-03-17T10:48:08;20.60;64.60
25616;DHT22;13482;48.234;13.006;2024-03-17T10:50:39;20.60;64.40
25616;DHT22;13482;48.234;13.006;2024-03-17T10:53:07;20.70;64.30
25616;DHT22;13482;48.234;13.006;2024-03-17T10:55:45;20.70;64.60
25616;DHT22;13482;48.234;13.006;2024-03-17T10:58:36;20.80;63.90
25616;DHT22;13482;48.234;13.006;2024-03-17T11:01:04;20.90;63.10
25616;DHT22;13482;48.234;13.006;2024-03-17T11:03:35;21.00;64.60
25616;DHT22;13482;48.234;13.006;2024-03-17T11:06:03;21.10;64.10
25616;DHT22;13482;48.234;13.006;2024-03-17T11:08:36;21.20;63.50
25616;DHT22;13482;48.234;13.006;2024-03-17T11:11:04;21.30;62.60
25616;DHT22;13482;48.234;13.006;2024-03-17T11:13:31;21.30;62.70
25616;DHT22;13482;48.234;13.006;2024-03-17T11:15:59;21.30;62.70
25616;DHT22;13482;48.234;13.006;2024-03-17T11:18:37;21.30;62.90
25616;DHT22;13482;48.234;13.006;2024-03-17T11:21:21;21.40;60.70
25616;DHT22;13482;48.234;13.006;2024-03-17T11:24:01;21.40;59.50
25616;DHT22;13482;48.234;13.006;2024-03-17T11:26:31;21.30;60.20
25616;DHT22;13482;48.234;13.006;2024-03-17T11:29:00;21.20;61.40
25616;DHT22;13482;48.234;13.006;2024-03-17T11:31:44;21.10;61.40
25616;DHT22;13482;48.234;13.006;2024-03-17T11:34:32;21.10;61.30
25616;DHT22;13482;48.234;13.006;2024-03-17T11:37:05;21.10;60.40
25616;DHT22;13482;48.234;13.006;2024-03-17T11:39:54;21.10;62.00
25616;DHT22;13482;48.234;13.006;2024-03-17T11:42:28;21.20;60.30
25616;DHT22;13482;48.234;13.006;2024-03-17T11:44:58;21.20;61.40
25616;DHT22;13482;48.234;13.006;2024-03-17T11:47:38;21.30;61.50
25616;DHT22;13482;48.234;13.006;2024-03-17T11:50:08;21.30;61.80
25616;DHT22;13482;48.234;13.006;2024-03-17T11:52:39;21.30;61.60
25616;DHT22;13482;48.234;13.006;2024-03-17T11:55:16;21.40;61.50
25616;DHT22;13482;48.234;13.006;2024-03-17T11:57:44;21.50;60.90
25616;DHT22;13482;48.234;13.006;2024-03-17T12:00:20;21.50;61.40
25616;DHT22;13482;48.234;13.006;2024-03-17T12:02:49;21.50;60.70
25616;DHT22;13482;48.234;13.006;2024-03-17T12:05:16;21.50;60.20
25616;DHT22;13482;48.234;13.006;2024-03-17T12:07:43;21.50;59.80
25616;DHT22;13482;48.234;13.006;2024-03-17T12:10:13;21.40;59.60
25616;DHT22;13482;48.234;13.006;2024-03-17T12:12:40;21.30;59.40
25616;DHT22;13482;48.234;13.006;2024-03-17T12:15:18;21.30;59.60
25616;DHT22;13482;48.234;13.006;2024-03-17T12:17:46;21.20;59.00
25616;DHT22;13482;48.234;13.006;2024-03-17T12:20:20;21.20;60.20
25616;DHT22;13482;48.234;13.006;2024-03-17T12:22:48;21.20;59.20
25616;DHT22;13482;48.234;13.006;2024-03-17T12:25:19;21.20;59.80
25616;DHT22;13482;48.234;13.006;2024-03-17T12:27:49;21.20;59.70
25616;DHT22;13482;48.234;13.006;2024-03-17T12:30:16;21.20;60.20
25616;DHT22;13482;48.234;13.006;2024-03-17T12:32:44;21.20;60.40
25616;DHT22;13482;48.234;13.006;2024-03-17T12:35:15;21.20;60.60
25616;DHT22;13482;48.234;13.006;2024-03-17T12:37:45;21.30;60.20
25616;DHT22;13482;48.234;13.006;2024-03-17T12:40:22;21.40;60.50
25616;DHT22;13482;48.234;13.006;2024-03-17T12:42:50;21.50;59.50
25616;DHT22;13482;48.234;13.006;2024-03-17T12:45:21;21.50;60.40
25616;DHT22;13482;48.234;13.006;2024-03-17T12:47:49;21.60;60.10
25616;DHT22;13482;48.234;13.006;2024-03-17T12:50:17;21.70;60.40
25616;DHT22;13482;48.234;13.006;2024-03-17T12:52:54;21.70;60.20
25616;DHT22;13482;48.234;13.006;2024-03-17T12:55:24;21.80;59.20
25616;DHT22;13482;48.234;13.006;2024-03-17T12:58:10;21.80;59.90
25616;DHT22;13482;48.234;13.006;2024-03-17T13:01:03;21.80;59.60
25616;DHT22;13482;48.234;13.006;2024-03-17T13:03:33;21.80;59.10
25616;DHT22;13482;48.234;13.006;2024-03-17T13:06:24;21.80;59.60
25616;DHT22;13482;48.234;13.006;2024-03-17T13:08:51;21.80;58.60
25616;DHT22;13482;48.234;13.006;2024-03-17T13:11:17;21.80;59.50
25616;DHT22;13482;48.234;13.006;2024-03-17T13:13:43;21.80;59.60
25616;DHT22;13482;48.234;13.006;2024-03-17T13:16:10;21.80;59.40
25616;DHT22;13482;48.234;13.006;2024-03-17T13:18:39;21.90;59.30
25616;DHT22;13482;48.234;13.006;2024-03-17T13:21:05;21.90;59.50
25616;DHT22;13482;48.234;13.006;2024-03-17T13:23:33;22.00;59.40
25616;DHT22;13482;48.234;13.006;2024-03-17T13:25:59;22.00;59.50
25616;DHT22;13482;48.234;13.006;2024-03-17T13:28:26;22.10;59.50
25616;DHT22;13482;48.234;13.006;2024-03-17T13:30:53;22.20;59.00
25616;DHT22;13482;48.234;13.006;2024-03-17T13:33:19;22.20;58.60
25616;DHT22;13482;48.234;13.006;2024-03-17T13:35:45;22.20;58.50
25616;DHT22;13482;48.234;13.006;2024-03-17T13:38:12;22.20;58.60
25616;DHT22;13482;48.234;13.006;2024-03-17T13:40:39;22.30;58.40
25616;DHT22;13482;48.234;13.006;2024-03-17T13:43:09;22.20;57.90
25616;DHT22;13482;48.234;13.006;2024-03-17T13:45:40;22.20;58.10
25616;DHT22;13482;48.234;13.006;2024-03-17T13:48:09;22.20;57.70
25616;DHT22;13482;48.234;13.006;2024-03-17T13:50:38;22.20;58.10
25616;DHT22;13482;48.234;13.006;2024-03-17T13:53:08;22.20;58.00
25616;DHT22;13482;48.234;13.006;2024-03-17T13:55:34;22.20;58.10
25616;DHT22;13482;48.234;13.006;2024-03-17T13:58:01;22.20;58.10
25616;DHT22;13482;48.234;13.006;2024-03-17T14:00:29;22.30;58.20
25616;DHT22;13482;48.234;13.006;2024-03-17T14:03:05;22.30;57.80
25616;DHT22;13482;48.234;13.006;2024-03-17T14:05:32;22.40;57.90
25616;DHT22;13482;48.234;13.006;2024-03-17T14:08:01;22.40;57.70
25616;DHT22;13482;48.234;13.006;2024-03-17T14:10:30;22.40;57.30
25616;DHT22;13482;48.234;13.006;2024-03-17T14:12:57;22.40;57.30
25616;DHT22;13482;48.234;13.006;2024-03-17T14:15:23;22.40;57.40
25616;DHT22;13482;48.234;13.006;2024-03-17T14:17:51;22.40;57.20
25616;DHT22;13482;48.234;13.006;2024-03-17T14:20:17;22.40;57.10
25616;DHT22;13482;48.234;13.006;2024-03-17T14:22:45;22.40;57.00
25616;DHT22;13482;48.234;13.006;2024-03-17T14:25:20;22.40;57.00
25616;DHT22;13482;48.234;13.006;2024-03-17T14:27:48;22.30;57.00
25616;DHT22;13482;48.234;13.006;2024-03-17T14:30:17;22.30;56.90
25616;DHT22;13482;48.234;13.006;2024-03-17T14:32:44;22.30;56.90
25616;DHT22;13482;48.234;13.006;2024-03-17T14:35:18;22.30;57.00
25616;DHT22;13482;48.234;13.006;2024-03-17T14:37:48;22.30;56.30
25616;DHT22;13482;48.234;13.006;2024-03-17T14:40:19;22.20;56.80
25616;DHT22;13482;48.234;13.006;2024-03-17T14:42:55;22.20;56.80
25616;DHT22;13482;48.234;13.006;2024-03-17T14:45:21;22.20;57.20
25616;DHT22;13482;48.234;13.006;2024-03-17T14:47:50;22.20;56.90
25616;DHT22;13482;48.234;13.006;2024-03-17T14:50:18;22.20;56.60
25616;DHT22;13482;48.234;13.006;2024-03-17T14:52:44;22.20;56.60
25616;DHT22;13482;48.234;13.006;2024-03-17T14:55:11;22.20;56.40
25616;DHT22;13482;48.234;13.006;2024-03-17T14:57:40;22.10;56.30
25616;DHT22;13482;48.234;13.006;2024-03-17T15:00:09;22.10;56.10
25616;DHT22;13482;48.234;13.006;2024-03-17T15:02:43;22.00;56.00
25616;DHT22;13482;48.234;13.006;2024-03-17T15:05:15;21.80;55.80
25616;DHT22;13482;48.234;13.006;2024-03-17T15:07:51;21.60;55.90
25616;DHT22;13482;48.234;13.006;2024-03-17T15:10:20;21.50;56.20
25616;DHT22;13482;48.234;13.006;2024-03-17T15:12:50;21.40;56.60
25616;DHT22;13482;48.234;13.006;2024-03-17T15:15:17;21.30;56.40
25616;DHT22;13482;48.234;13.006;2024-03-17T15:17:43;21.20;56.50
25616;DHT22;13482;48.234;13.006;2024-03-17T15:20:19;21.20;56.70
25616;DHT22;13482;48.234;13.006;2024-03-17T15:22:49;21.20;56.20
25616;DHT22;13482;48.234;13.006;2024-03-17T15:25:21;21.20;56.60
25616;DHT22;13482;48.234;13.006;2024-03-17T15:27:50;21.10;56.80
25616;DHT22;13482;48.234;13.006;2024-03-17T15:30:27;21.10;56.70
25616;DHT22;13482;48.234;13.006;2024-03-17T15:33:26;21.10;56.60
25616;DHT22;13482;48.234;13.006;2024-03-17T15:35:54;21.10;56.10
25616;DHT22;13482;48.234;13.006;2024-03-17T15:39:10;21.00;56.60
25616;DHT22;13482;48.234;13.006;2024-03-17T15:41:42;21.00;56.60